createdAt,value
2022-10-26T00:00:05.617Z,10.13
2022-10-26T00:02:57.362Z,8.82
2022-10-26T00:05:42.895Z,8.60
2022-10-26T00:08:28.194Z,8.38
2022-10-26T00:11:14.340Z,9.45
2022-10-26T00:13:59.838Z,8.50
2022-10-26T00:16:45.250Z,8.93
2022-10-26T00:19:33.881Z,9.18
2022-10-26T00:22:19.185Z,9.35
2022-10-26T00:25:05.519Z,8.98
2022-10-26T00:27:50.978Z,9.15
2022-10-26T00:30:39.685Z,8.55
2022-10-26T00:33:24.835Z,8.73
2022-10-26T00:36:13.642Z,8.77
2022-10-26T00:38:59.139Z,8.98
2022-10-26T00:41:44.571Z,9.48
2022-10-26T00:44:48.098Z,8.57
2022-10-26T00:47:53.695Z,9.40
2022-10-26T00:50:43.337Z,8.23
2022-10-26T00:53:29.869Z,9.57
2022-10-26T00:56:15.963Z,9.63
2022-10-26T00:59:06.537Z,9.07
2022-10-26T01:01:52.877Z,8.45
2022-10-26T01:04:38.123Z,8.02
2022-10-26T01:07:25.570Z,8.57
2022-10-26T01:10:11.463Z,8.73
2022-10-26T01:12:58.705Z,7.97
2022-10-26T01:15:56.687Z,7.75
2022-10-26T01:19:05.357Z,8.10
2022-10-26T01:22:02.103Z,8.52
2022-10-26T01:25:13.184Z,7.90
2022-10-26T01:28:02.468Z,8.15
2022-10-26T01:30:48.884Z,8.23
2022-10-26T01:33:46.907Z,7.20
2022-10-26T01:36:40.742Z,7.78
2022-10-26T01:39:41.530Z,9.02
2022-10-26T01:42:29.742Z,8.23
2022-10-26T01:45:16.468Z,9.27
2022-10-26T01:48:04.123Z,8.77
2022-10-26T01:50:53.606Z,10.05
2022-10-26T01:53:45.769Z,8.77
2022-10-26T01:56:36.127Z,8.60
2022-10-26T01:59:44.000Z,9.32
2022-10-26T02:03:00.268Z,8.32
2022-10-26T02:05:53.456Z,8.05
2022-10-26T02:09:01.684Z,9.25
2022-10-26T02:11:51.487Z,8.80
2022-10-26T02:17:38.394Z,8.70
2022-10-26T02:20:28.394Z,8.23
2022-10-26T02:23:16.413Z,9.20
2022-10-26T02:26:03.457Z,8.27
2022-10-26T02:28:52.880Z,8.98
2022-10-26T02:31:40.670Z,9.15
2022-10-26T02:34:29.126Z,8.38
2022-10-26T02:37:17.320Z,9.07
2022-10-26T02:40:08.926Z,8.35
2022-10-26T02:42:59.771Z,8.88
2022-10-26T02:45:51.643Z,9.27
2022-10-26T02:48:37.867Z,8.25
2022-10-26T02:51:45.046Z,9.25
2022-10-26T02:54:40.590Z,9.80
2022-10-26T02:57:40.495Z,9.60
2022-10-26T03:00:25.975Z,8.57
2022-10-26T03:03:12.233Z,7.95
2022-10-26T03:05:57.607Z,8.27
2022-10-26T03:08:42.907Z,9.43
2022-10-26T03:11:28.382Z,9.27
2022-10-26T03:14:13.698Z,8.68
2022-10-26T03:16:59.017Z,8.10
2022-10-26T03:19:44.347Z,8.38
2022-10-26T03:22:29.875Z,7.15
2022-10-26T03:25:18.335Z,7.90
2022-10-26T03:28:05.322Z,8.20
2022-10-26T03:30:50.611Z,7.00
2022-10-26T03:36:21.053Z,7.43
2022-10-26T03:39:05.953Z,7.38
2022-10-26T03:41:51.392Z,6.70
2022-10-26T03:44:36.814Z,6.82
2022-10-26T03:47:22.135Z,7.45
2022-10-26T03:50:07.880Z,6.75
2022-10-26T03:52:53.355Z,6.82
2022-10-26T03:55:38.774Z,6.63
2022-10-26T04:01:14.512Z,6.63
2022-10-26T04:03:59.724Z,7.57
2022-10-26T04:06:48.128Z,6.43
2022-10-26T04:09:33.421Z,6.93
2022-10-26T04:12:18.940Z,7.13
2022-10-26T04:15:06.733Z,6.82
2022-10-26T04:18:02.098Z,7.38
2022-10-26T04:20:47.318Z,6.30
2022-10-26T04:23:32.387Z,6.57
2022-10-26T04:26:18.060Z,7.03
2022-10-26T04:29:06.644Z,7.53
2022-10-26T04:31:52.142Z,6.55
2022-10-26T04:34:37.292Z,6.78
2022-10-26T04:37:22.744Z,6.55
2022-10-26T04:40:08.735Z,6.45
2022-10-26T04:42:54.331Z,7.07
2022-10-26T04:45:39.167Z,6.65
2022-10-26T04:51:14.989Z,6.55
2022-10-26T04:54:00.322Z,6.97
2022-10-26T04:59:31.385Z,6.57
2022-10-26T05:02:16.897Z,6.97
2022-10-26T05:07:55.753Z,7.50
2022-10-26T05:10:40.943Z,7.25
2022-10-26T05:16:12.523Z,7.70
2022-10-26T05:18:57.850Z,8.55
2022-10-26T05:24:33.468Z,7.80
2022-10-26T05:27:18.604Z,8.63
2022-10-26T05:30:04.283Z,8.20
2022-10-26T05:32:56.899Z,7.15
2022-10-26T05:35:42.674Z,8.07
2022-10-26T05:38:27.970Z,7.78
2022-10-26T05:41:13.420Z,7.72
2022-10-26T05:43:58.873Z,7.03
2022-10-26T05:46:46.860Z,7.40
2022-10-26T05:49:32.114Z,7.80
2022-10-26T05:52:17.420Z,7.78
2022-10-26T05:55:02.949Z,8.45
2022-10-26T05:57:48.355Z,7.80
2022-10-26T06:00:34.131Z,8.05
2022-10-26T06:03:27.604Z,7.32
2022-10-26T06:06:13.561Z,8.35
2022-10-26T06:08:58.709Z,9.13
2022-10-26T06:11:44.499Z,9.43
2022-10-26T06:14:30.130Z,9.45
2022-10-26T06:17:43.095Z,7.78
2022-10-26T06:20:44.701Z,7.95
2022-10-26T06:23:45.325Z,8.20
2022-10-26T06:27:05.783Z,8.75
2022-10-26T06:30:11.678Z,9.48
2022-10-26T06:33:05.808Z,9.15
2022-10-26T06:36:17.655Z,9.02
2022-10-26T06:39:07.114Z,8.43
2022-10-26T06:41:52.989Z,8.32
2022-10-26T06:44:40.824Z,8.85
2022-10-26T06:47:53.782Z,9.23
2022-10-26T06:50:52.543Z,9.40
2022-10-26T06:53:57.178Z,8.73
2022-10-26T06:56:45.260Z,8.38
2022-10-26T06:59:57.106Z,8.27
2022-10-26T07:02:42.561Z,8.55
2022-10-26T07:05:28.090Z,8.15
2022-10-26T07:08:13.638Z,7.57
2022-10-26T07:10:59.012Z,7.65
2022-10-26T07:13:44.334Z,7.57
2022-10-26T07:16:29.600Z,8.07
2022-10-26T07:19:15.005Z,9.15
2022-10-26T07:22:01.140Z,7.32
2022-10-26T07:24:50.238Z,7.38
2022-10-26T07:27:35.886Z,7.55
2022-10-26T07:30:21.177Z,7.57
2022-10-26T07:33:14.323Z,7.07
2022-10-26T07:35:59.902Z,7.22
2022-10-26T07:38:44.883Z,7.72
2022-10-26T07:41:30.491Z,7.88
2022-10-26T07:44:19.377Z,8.10
2022-10-26T07:47:58.003Z,7.45
2022-10-26T07:50:51.757Z,8.73
2022-10-26T07:54:18.641Z,8.82
2022-10-26T07:59:56.123Z,8.52
2022-10-26T08:02:41.344Z,9.30
2022-10-26T08:05:26.636Z,9.27
2022-10-26T08:08:12.156Z,8.38
2022-10-26T08:10:58.288Z,8.98
2022-10-26T08:13:43.575Z,8.15
2022-10-26T08:16:28.941Z,8.05
2022-10-26T08:19:14.024Z,9.18
2022-10-26T08:21:59.801Z,8.20
2022-10-26T08:24:46.907Z,8.20
2022-10-26T08:27:32.506Z,7.90
2022-10-26T08:30:18.359Z,8.73
2022-10-26T08:33:06.562Z,8.05
2022-10-26T08:35:59.916Z,7.38
2022-10-26T08:38:48.391Z,7.55
2022-10-26T08:41:43.394Z,7.33
2022-10-26T08:44:45.259Z,8.00
2022-10-26T08:47:46.192Z,8.30
2022-10-26T08:50:45.028Z,6.80
2022-10-26T08:53:44.433Z,7.25
2022-10-26T08:56:44.934Z,7.60
2022-10-26T08:59:40.617Z,7.38
2022-10-26T09:02:26.126Z,10.18
2022-10-26T09:05:16.513Z,7.85
2022-10-26T09:08:24.244Z,6.28
2022-10-26T09:11:34.430Z,7.93
2022-10-26T09:14:40.554Z,7.57
2022-10-26T09:17:46.514Z,7.85
2022-10-26T09:21:08.683Z,7.75
2022-10-26T09:24:00.421Z,7.68
2022-10-26T09:27:01.020Z,8.27
2022-10-26T09:29:49.175Z,7.25
2022-10-26T09:32:44.625Z,7.97
2022-10-26T09:35:41.983Z,7.30
2022-10-26T09:38:37.234Z,6.88
2022-10-26T09:41:38.266Z,6.60
2022-10-26T09:44:42.403Z,6.65
2022-10-26T09:47:35.895Z,6.68
2022-10-26T09:50:28.977Z,6.68
2022-10-26T09:53:14.644Z,6.78
2022-10-26T09:56:10.197Z,6.25
2022-10-26T09:59:05.662Z,6.07
2022-10-26T10:01:51.457Z,5.68
2022-10-26T10:04:48.780Z,6.63
2022-10-26T10:07:37.803Z,5.72
2022-10-26T10:10:25.028Z,5.85
2022-10-26T10:13:16.563Z,5.88
2022-10-26T10:16:03.619Z,5.85
2022-10-26T10:18:59.992Z,5.07
2022-10-26T10:21:49.991Z,5.32
2022-10-26T10:24:37.272Z,5.03
2022-10-26T10:27:23.352Z,5.53
2022-10-26T10:30:23.825Z,5.38
2022-10-26T10:33:12.681Z,5.03
2022-10-26T10:35:58.555Z,5.07
2022-10-26T10:38:45.994Z,4.40
2022-10-26T10:41:36.395Z,4.75
2022-10-26T10:44:29.745Z,4.38
2022-10-26T10:47:22.685Z,4.32
2022-10-26T10:50:17.570Z,4.10
2022-10-26T10:53:25.338Z,4.25
2022-10-26T10:56:31.452Z,4.53
2022-10-26T10:59:26.136Z,3.85
2022-10-26T11:02:11.484Z,4.65
2022-10-26T11:05:27.359Z,3.92
2022-10-26T11:08:21.921Z,3.58
2022-10-26T11:11:19.093Z,3.90
2022-10-26T11:14:20.785Z,3.85
2022-10-26T11:17:24.313Z,4.13
2022-10-26T11:20:19.172Z,4.63
2022-10-26T11:23:09.380Z,3.97
2022-10-26T11:26:04.832Z,2.80
2022-10-26T11:29:08.036Z,3.20
2022-10-26T11:32:01.442Z,3.20
2022-10-26T11:34:53.951Z,3.28
2022-10-26T11:37:54.541Z,2.88
2022-10-26T11:41:06.925Z,3.47
2022-10-26T11:44:05.586Z,4.30
2022-10-26T11:47:05.897Z,4.15
2022-10-26T11:50:14.657Z,3.72
2022-10-26T11:53:21.808Z,3.80
2022-10-26T11:56:19.488Z,3.63
2022-10-26T11:59:06.209Z,2.92
2022-10-26T12:01:56.461Z,3.05
2022-10-26T12:04:45.045Z,2.97
2022-10-26T12:07:36.495Z,3.53
2022-10-26T12:10:28.975Z,2.75
2022-10-26T12:13:29.755Z,3.00
2022-10-26T12:16:43.092Z,2.60
2022-10-26T12:20:13.265Z,5.85
2022-10-26T12:22:59.096Z,6.88
2022-10-26T12:25:45.144Z,6.63
2022-10-26T12:28:36.949Z,5.03
2022-10-26T12:31:37.511Z,5.30
2022-10-26T12:34:32.060Z,3.90
2022-10-26T12:37:37.613Z,3.55
2022-10-26T12:40:34.735Z,3.45
2022-10-26T12:43:24.908Z,2.53
2022-10-26T12:46:16.255Z,3.00
2022-10-26T12:49:06.323Z,3.00
2022-10-26T12:51:52.657Z,3.22
2022-10-26T12:54:50.334Z,3.33
2022-10-26T12:58:12.199Z,2.40
2022-10-26T13:01:00.566Z,3.15
2022-10-26T13:04:09.062Z,5.35
2022-10-26T13:07:32.925Z,4.03
2022-10-26T13:11:22.028Z,3.67
2022-10-26T13:13:56.008Z,3.55
2022-10-26T13:16:45.853Z,4.43
2022-10-26T13:19:42.353Z,4.22
2022-10-26T13:22:28.363Z,4.88
2022-10-26T13:25:39.119Z,6.35
2022-10-26T13:28:35.729Z,11.93
2022-10-26T13:31:41.548Z,5.35
2022-10-26T13:34:31.360Z,9.20
2022-10-26T13:37:27.207Z,6.03
2022-10-26T13:40:20.909Z,13.00
2022-10-26T13:43:11.600Z,13.65
2022-10-26T13:46:01.305Z,4.85
2022-10-26T13:48:47.239Z,2.92
2022-10-26T13:51:41.084Z,2.33
2022-10-26T13:54:42.961Z,2.17
2022-10-26T13:57:39.459Z,2.42
2022-10-26T14:00:24.988Z,1.77
2022-10-26T14:03:14.719Z,1.77
2022-10-26T14:08:47.343Z,1.65
2022-10-26T14:11:36.903Z,3.28
2022-10-26T14:14:29.413Z,2.10
2022-10-26T14:17:25.498Z,1.88
2022-10-26T14:20:23.186Z,1.40
2022-10-26T14:23:35.432Z,1.80
2022-10-26T14:26:23.634Z,2.67
2022-10-26T14:29:24.850Z,2.05
2022-10-26T14:32:27.853Z,2.67
2022-10-26T14:35:14.348Z,1.92
2022-10-26T14:38:06.916Z,2.05
2022-10-26T14:40:54.798Z,1.92
2022-10-26T14:43:40.350Z,2.72
2022-10-26T14:46:28.202Z,2.70
2022-10-26T14:49:20.453Z,2.78
2022-10-26T14:52:06.401Z,2.17
2022-10-26T14:55:06.920Z,3.08
2022-10-26T14:58:06.526Z,2.80
2022-10-26T15:01:14.566Z,2.65
2022-10-26T15:04:06.495Z,3.30
2022-10-26T15:09:47.966Z,3.15
2022-10-26T15:12:38.796Z,2.45
2022-10-26T15:15:25.944Z,2.92
2022-10-26T15:18:21.551Z,2.80
2022-10-26T15:21:28.635Z,2.45
2022-10-26T15:24:20.090Z,2.55
2022-10-26T15:27:15.898Z,3.08
2022-10-26T15:30:28.045Z,2.90
2022-10-26T15:33:22.418Z,2.63
2022-10-26T15:36:07.766Z,4.65
2022-10-26T15:38:53.712Z,4.05
2022-10-26T15:41:45.968Z,3.90
2022-10-26T15:44:31.376Z,3.78
2022-10-26T15:47:19.214Z,4.78
2022-10-26T15:50:13.001Z,5.13
2022-10-26T15:53:06.239Z,5.47
2022-10-26T15:55:53.604Z,5.57
2022-10-26T15:58:39.143Z,4.07
2022-10-26T16:01:26.594Z,4.88
2022-10-26T16:04:14.655Z,3.72
2022-10-26T16:07:05.331Z,5.18
2022-10-26T16:09:50.889Z,4.75
2022-10-26T16:12:35.989Z,4.43
2022-10-26T16:15:25.122Z,4.53
2022-10-26T16:18:10.424Z,4.03
2022-10-26T16:20:55.876Z,4.00
2022-10-26T16:23:42.098Z,5.15
2022-10-26T16:26:27.768Z,4.32
2022-10-26T16:29:13.289Z,5.28
2022-10-26T16:31:58.506Z,4.50
2022-10-26T16:34:43.522Z,5.25
2022-10-26T16:37:30.196Z,5.45
2022-10-26T16:40:15.404Z,5.18
2022-10-26T16:43:00.328Z,4.97
2022-10-26T16:45:45.851Z,4.97
2022-10-26T16:48:30.996Z,5.60
2022-10-26T16:51:19.326Z,6.38
2022-10-26T16:54:05.228Z,5.75
2022-10-26T16:56:50.626Z,4.78
2022-10-26T16:59:35.783Z,5.50
2022-10-26T17:02:21.108Z,5.65
2022-10-26T17:05:07.367Z,6.03
2022-10-26T17:07:53.612Z,5.18
2022-10-26T17:10:39.087Z,5.53
2022-10-26T17:13:24.584Z,5.15
2022-10-26T17:16:18.198Z,5.80
2022-10-26T17:19:03.430Z,7.85
2022-10-26T17:21:48.761Z,8.70
2022-10-26T17:24:34.170Z,8.70
2022-10-26T17:27:20.317Z,8.77
2022-10-26T17:30:05.776Z,7.47
2022-10-26T17:32:51.835Z,6.70
2022-10-26T17:35:37.827Z,7.30
2022-10-26T17:38:23.064Z,7.53
2022-10-26T17:41:13.951Z,6.72
2022-10-26T17:43:59.072Z,5.82
2022-10-26T17:46:44.791Z,6.65
2022-10-26T17:49:35.112Z,6.20
2022-10-26T17:52:24.564Z,6.47
2022-10-26T17:55:10.136Z,6.50
2022-10-26T17:57:55.431Z,6.35
2022-10-26T18:00:41.035Z,6.30
2022-10-26T18:03:27.800Z,6.70
2022-10-26T18:06:13.079Z,7.45
2022-10-26T18:08:58.947Z,8.70
2022-10-26T18:11:44.215Z,12.25
2022-10-26T18:14:29.847Z,12.05
2022-10-26T18:17:15.558Z,11.63
2022-10-26T18:20:01.184Z,9.40
2022-10-26T18:22:47.981Z,10.30
2022-10-26T18:25:33.845Z,10.02
2022-10-26T18:28:19.124Z,9.85
2022-10-26T18:31:07.073Z,10.60
2022-10-26T18:34:00.183Z,10.70
2022-10-26T18:36:45.566Z,9.18
2022-10-26T18:39:30.761Z,8.75
2022-10-26T18:42:16.054Z,7.97
2022-10-26T18:45:03.343Z,7.45
2022-10-26T18:47:49.695Z,7.32
2022-10-26T18:50:35.802Z,6.70
2022-10-26T18:53:21.253Z,6.18
2022-10-26T18:56:09.325Z,7.05
2022-10-26T18:59:00.092Z,6.97
2022-10-26T19:01:46.853Z,7.15
2022-10-26T19:04:33.881Z,8.50
2022-10-26T19:07:20.161Z,8.50
2022-10-26T19:10:06.186Z,9.02
2022-10-26T19:12:52.543Z,8.85
2022-10-26T19:15:37.866Z,8.98
2022-10-26T19:18:25.865Z,8.15
2022-10-26T19:21:14.223Z,7.75
2022-10-26T19:24:01.178Z,8.00
2022-10-26T19:26:47.461Z,9.13
2022-10-26T19:29:32.729Z,8.57
2022-10-26T19:32:18.179Z,8.32
2022-10-26T19:35:03.318Z,7.47
2022-10-26T19:37:49.012Z,6.72
2022-10-26T19:40:34.385Z,6.57
2022-10-26T19:43:19.797Z,5.38
2022-10-26T19:46:10.679Z,6.63
2022-10-26T19:48:58.800Z,6.68
2022-10-26T19:51:44.188Z,6.43
2022-10-26T19:54:29.550Z,6.40
2022-10-26T19:57:14.899Z,7.18
2022-10-26T20:00:00.229Z,6.43
2022-10-26T20:02:45.399Z,6.70
2022-10-26T20:05:32.174Z,6.47
2022-10-26T20:08:17.151Z,7.10
2022-10-26T20:11:02.959Z,6.88
2022-10-26T20:13:48.691Z,6.40
2022-10-26T20:16:34.034Z,7.00
2022-10-26T20:19:19.519Z,5.78
2022-10-26T20:22:04.779Z,7.13
2022-10-26T20:24:49.784Z,6.32
2022-10-26T20:27:37.404Z,6.93
2022-10-26T20:30:22.711Z,6.93
2022-10-26T20:33:12.626Z,6.88
2022-10-26T20:35:58.929Z,7.50
2022-10-26T20:38:44.469Z,6.15
2022-10-26T20:41:29.928Z,6.97
2022-10-26T20:44:26.750Z,7.15
2022-10-26T20:47:12.586Z,6.57
2022-10-26T20:49:58.266Z,7.80
2022-10-26T20:52:51.665Z,8.25
2022-10-26T20:55:44.591Z,8.20
2022-10-26T20:58:39.032Z,8.40
2022-10-26T21:01:42.464Z,8.90
2022-10-26T21:04:27.465Z,8.23
2022-10-26T21:07:13.236Z,7.82
2022-10-26T21:09:58.314Z,7.07
2022-10-26T21:12:45.306Z,6.40
2022-10-26T21:15:30.898Z,6.38
2022-10-26T21:18:16.109Z,6.40
2022-10-26T21:21:02.006Z,7.55
2022-10-26T21:23:47.958Z,7.13
2022-10-26T21:26:33.380Z,7.35
2022-10-26T21:29:18.842Z,8.02
2022-10-26T21:32:04.269Z,7.53
2022-10-26T21:34:49.589Z,7.00
2022-10-26T21:37:34.925Z,7.80
2022-10-26T21:40:20.619Z,6.65
2022-10-26T21:43:06.113Z,6.97
2022-10-26T21:45:56.380Z,7.30
2022-10-26T21:48:42.475Z,7.10
2022-10-26T21:51:27.595Z,8.40
2022-10-26T21:54:20.370Z,7.18
2022-10-26T21:57:05.315Z,7.68
2022-10-26T22:00:10.938Z,8.23
2022-10-26T22:03:21.971Z,7.53
2022-10-26T22:06:35.472Z,8.23
2022-10-26T22:09:20.718Z,7.75
2022-10-26T22:12:07.706Z,7.47
2022-10-26T22:14:52.898Z,7.32
2022-10-26T22:17:39.617Z,7.65
2022-10-26T22:20:24.918Z,7.35
2022-10-26T22:23:10.760Z,6.32
2022-10-26T22:26:01.367Z,5.85
2022-10-26T22:28:52.315Z,6.40
2022-10-26T22:31:40.293Z,6.45
2022-10-26T22:34:25.571Z,7.10
2022-10-26T22:37:10.618Z,6.97
2022-10-26T22:39:56.146Z,7.70
2022-10-26T22:42:41.211Z,7.22
2022-10-26T22:45:26.597Z,7.18
2022-10-26T22:48:11.975Z,7.38
2022-10-26T22:50:58.061Z,7.07
2022-10-26T22:53:43.590Z,7.07
2022-10-26T22:56:29.672Z,8.23
2022-10-26T22:59:14.816Z,7.78
2022-10-26T23:02:00.385Z,7.32
2022-10-26T23:07:35.811Z,7.15
2022-10-26T23:10:21.065Z,7.13
2022-10-26T23:13:06.430Z,7.93
2022-10-26T23:15:51.722Z,7.82
2022-10-26T23:18:37.401Z,8.52
2022-10-26T23:21:24.968Z,7.90
2022-10-26T23:24:10.304Z,7.65
2022-10-26T23:26:55.378Z,7.68
2022-10-26T23:29:40.918Z,7.55
2022-10-26T23:32:26.335Z,7.72
2022-10-26T23:35:11.888Z,7.85
2022-10-26T23:37:58.707Z,7.38
2022-10-26T23:40:55.375Z,6.40
2022-10-26T23:43:41.136Z,6.47
2022-10-26T23:49:16.392Z,6.35
2022-10-26T23:52:01.834Z,7.13
2022-10-26T23:54:47.090Z,7.03
2022-10-26T23:57:32.567Z,7.00
